createdAt,value
2023-02-05T00:01:18.247Z,8.36
2023-02-05T00:04:04.925Z,8.48
2023-02-05T00:06:51.549Z,8.54
2023-02-05T00:09:40.905Z,8.29
2023-02-05T00:12:28.017Z,8.42
2023-02-05T00:15:14.504Z,8.41
2023-02-05T00:18:02.447Z,8.54
2023-02-05T00:20:48.729Z,8.53
2023-02-05T00:23:36.212Z,8.42
2023-02-05T00:26:22.813Z,8.41
2023-02-05T00:29:09.445Z,8.52
2023-02-05T00:31:56.397Z,8.62
2023-02-05T00:34:45.157Z,8.60
2023-02-05T00:37:32.193Z,8.43
2023-02-05T00:40:19.461Z,8.34
2023-02-05T00:43:06.193Z,8.43
2023-02-05T00:45:53.266Z,8.49
2023-02-05T00:48:41.208Z,8.37
2023-02-05T00:51:29.783Z,8.34
2023-02-05T00:54:16.170Z,8.41
2023-02-05T00:57:02.849Z,8.60
2023-02-05T00:59:49.170Z,8.84
2023-02-05T01:02:36.166Z,8.43
2023-02-05T01:05:23.660Z,8.18
2023-02-05T01:08:14.149Z,8.30
2023-02-05T01:11:01.279Z,8.25
2023-02-05T01:13:48.467Z,8.21
2023-02-05T01:16:35.072Z,8.28
2023-02-05T01:19:21.949Z,8.47
2023-02-05T01:22:11.248Z,8.42
2023-02-05T01:24:59.448Z,8.15
2023-02-05T01:27:46.112Z,8.18
2023-02-05T01:30:34.040Z,8.45
2023-02-05T01:33:21.094Z,8.24
2023-02-05T01:36:07.800Z,8.18
2023-02-05T01:38:54.441Z,8.22
2023-02-05T01:41:44.562Z,8.32
2023-02-05T01:44:32.283Z,8.18
2023-02-05T01:47:19.173Z,8.26
2023-02-05T01:50:06.048Z,8.33
2023-02-05T01:52:53.566Z,8.57
2023-02-05T01:55:44.851Z,8.35
2023-02-05T01:58:37.001Z,8.47
2023-02-05T02:01:24.270Z,8.47
2023-02-05T02:04:15.558Z,8.56
2023-02-05T02:07:02.709Z,8.53
2023-02-05T02:09:50.568Z,8.44
2023-02-05T02:12:39.300Z,8.32
2023-02-05T02:15:29.350Z,8.54
2023-02-05T02:18:28.041Z,8.25
2023-02-05T02:21:41.629Z,8.37
2023-02-05T02:25:01.859Z,8.53
2023-02-05T02:27:54.897Z,8.30
2023-02-05T02:30:44.991Z,8.49
2023-02-05T02:33:37.509Z,8.43
2023-02-05T02:36:31.223Z,8.20
2023-02-05T02:39:24.212Z,8.41
2023-02-05T02:42:16.576Z,8.39
2023-02-05T02:45:09.649Z,8.27
2023-02-05T02:48:00.856Z,8.07
2023-02-05T02:50:53.058Z,8.10
2023-02-05T02:53:45.064Z,8.14
2023-02-05T02:56:34.604Z,8.19
2023-02-05T02:59:25.825Z,8.06
2023-02-05T03:02:15.925Z,8.09
2023-02-05T03:05:05.938Z,8.11
2023-02-05T03:07:57.618Z,8.57
2023-02-05T03:10:49.136Z,8.32
2023-02-05T03:13:35.868Z,8.62
2023-02-05T03:16:24.479Z,8.99
2023-02-05T03:19:13.585Z,8.68
2023-02-05T03:22:04.616Z,8.77
2023-02-05T03:24:52.437Z,8.45
2023-02-05T03:27:40.155Z,8.45
2023-02-05T03:30:33.284Z,8.61
2023-02-05T03:33:31.721Z,8.38
2023-02-05T03:36:27.430Z,8.15
2023-02-05T03:39:27.811Z,8.24
2023-02-05T03:42:28.297Z,8.08
2023-02-05T03:45:22.645Z,8.08
2023-02-05T03:48:36.561Z,8.01
2023-02-05T03:51:32.994Z,7.92
2023-02-05T03:54:28.539Z,8.18
2023-02-05T03:57:22.402Z,8.28
2023-02-05T04:00:11.395Z,8.03
2023-02-05T04:03:00.583Z,8.18
2023-02-05T04:05:51.221Z,7.91
2023-02-05T04:08:40.894Z,8.11
2023-02-05T04:11:28.271Z,8.40
2023-02-05T04:14:15.544Z,8.18
2023-02-05T04:17:03.570Z,8.10
2023-02-05T04:19:50.127Z,7.81
2023-02-05T04:22:39.819Z,7.97
2023-02-05T04:25:27.941Z,8.11
2023-02-05T04:28:20.123Z,7.74
2023-02-05T04:31:08.640Z,8.13
2023-02-05T04:33:55.907Z,8.06
2023-02-05T04:36:42.641Z,7.94
2023-02-05T04:39:29.322Z,7.94
2023-02-05T04:42:17.115Z,8.18
2023-02-05T04:45:05.968Z,8.40
2023-02-05T04:47:52.663Z,8.64
2023-02-05T04:50:39.245Z,8.58
2023-02-05T04:53:25.766Z,8.72
2023-02-05T04:56:14.414Z,9.21
2023-02-05T04:59:02.404Z,8.45
2023-02-05T05:01:48.931Z,8.77
2023-02-05T05:04:35.662Z,8.97
2023-02-05T05:07:22.455Z,8.81
2023-02-05T05:10:10.030Z,8.29
2023-02-05T05:12:56.673Z,8.52
2023-02-05T05:15:45.091Z,8.59
2023-02-05T05:18:32.148Z,8.49
2023-02-05T05:21:18.694Z,8.33
2023-02-05T05:24:05.937Z,8.32
2023-02-05T05:26:52.485Z,8.42
2023-02-05T05:29:39.226Z,8.38
2023-02-05T05:32:27.003Z,8.67
2023-02-05T05:35:13.739Z,8.36
2023-02-05T05:38:01.174Z,8.74
2023-02-05T05:41:06.164Z,8.20
2023-02-05T05:43:53.864Z,8.51
2023-02-05T05:46:40.569Z,7.92
2023-02-05T05:49:28.479Z,7.70
2023-02-05T05:52:15.359Z,7.62
2023-02-05T05:55:01.994Z,7.38
2023-02-05T05:57:48.598Z,7.23
2023-02-05T06:00:35.900Z,7.08
2023-02-05T06:03:23.976Z,6.99
2023-02-05T06:06:13.470Z,6.85
2023-02-05T06:09:00.141Z,7.01
2023-02-05T06:11:46.844Z,6.74
2023-02-05T06:14:33.878Z,6.72
2023-02-05T06:17:21.522Z,6.64
2023-02-05T06:20:08.572Z,6.76
2023-02-05T06:22:56.630Z,6.88
2023-02-05T06:25:43.118Z,6.94
2023-02-05T06:28:29.697Z,6.90
2023-02-05T06:31:17.413Z,6.77
2023-02-05T06:34:04.184Z,6.80
2023-02-05T06:36:50.900Z,6.96
2023-02-05T06:39:38.934Z,6.87
2023-02-05T06:42:25.720Z,6.81
2023-02-05T06:45:12.482Z,6.79
2023-02-05T06:47:59.084Z,6.70
2023-02-05T06:50:45.659Z,6.89
2023-02-05T06:53:32.275Z,6.91
2023-02-05T06:56:20.202Z,6.82
2023-02-05T06:59:07.073Z,6.89
2023-02-05T07:01:53.855Z,6.83
2023-02-05T07:04:40.238Z,6.96
2023-02-05T07:07:27.157Z,6.78
2023-02-05T07:10:13.804Z,6.64
2023-02-05T07:13:01.760Z,6.73
2023-02-05T07:15:49.752Z,7.05
2023-02-05T07:18:36.531Z,7.14
2023-02-05T07:21:22.851Z,7.01
2023-02-05T07:24:09.880Z,7.23
2023-02-05T07:26:56.888Z,7.11
2023-02-05T07:29:44.640Z,7.29
2023-02-05T07:32:31.228Z,7.18
2023-02-05T07:35:17.880Z,7.63
2023-02-05T07:38:04.642Z,7.21
2023-02-05T07:40:51.121Z,7.65
2023-02-05T07:43:37.795Z,7.43
2023-02-05T07:46:25.686Z,7.60
2023-02-05T07:49:12.336Z,7.53
2023-02-05T07:51:58.982Z,7.59
2023-02-05T07:54:45.384Z,7.56
2023-02-05T07:57:31.913Z,7.41
2023-02-05T08:00:18.902Z,7.29
2023-02-05T08:03:06.793Z,7.42
2023-02-05T08:05:53.308Z,7.44
2023-02-05T08:08:40.073Z,7.48
2023-02-05T08:11:26.674Z,7.49
2023-02-05T08:14:16.660Z,7.34
2023-02-05T08:17:03.293Z,7.42
2023-02-05T08:19:51.463Z,7.64
2023-02-05T08:22:40.600Z,7.87
2023-02-05T08:25:27.328Z,7.84
2023-02-05T08:28:14.121Z,7.60
2023-02-05T08:31:00.748Z,7.83
2023-02-05T08:33:47.896Z,7.98
2023-02-05T08:36:35.723Z,7.94
2023-02-05T08:39:22.368Z,7.69
2023-02-05T08:42:09.062Z,7.93
2023-02-05T08:44:58.350Z,8.02
2023-02-05T08:47:45.098Z,7.73
2023-02-05T08:50:31.721Z,7.99
2023-02-05T08:53:19.485Z,7.78
2023-02-05T08:56:06.960Z,7.82
2023-02-05T08:58:53.363Z,7.98
2023-02-05T09:01:40.850Z,8.15
2023-02-05T09:04:27.607Z,7.89
2023-02-05T09:07:14.128Z,8.06
2023-02-05T09:10:01.929Z,8.00
2023-02-05T09:12:48.746Z,8.22
2023-02-05T09:15:35.712Z,7.83
2023-02-05T09:18:22.491Z,7.85
2023-02-05T09:21:10.853Z,8.02
2023-02-05T09:23:58.223Z,7.98
2023-02-05T09:26:46.227Z,8.01
2023-02-05T09:29:32.665Z,8.10
2023-02-05T09:32:19.271Z,7.99
2023-02-05T09:35:06.101Z,7.92
2023-02-05T09:37:52.368Z,8.28
2023-02-05T09:40:44.227Z,8.04
2023-02-05T09:43:45.230Z,8.03
2023-02-05T09:46:42.742Z,8.31
2023-02-05T09:49:31.479Z,8.73
2023-02-05T09:52:22.937Z,8.37
2023-02-05T09:55:20.430Z,8.14
2023-02-05T09:58:12.466Z,8.61
2023-02-05T10:01:03.736Z,8.31
2023-02-05T10:03:56.101Z,8.21
2023-02-05T10:07:01.992Z,8.29
2023-02-05T10:10:16.205Z,8.34
2023-02-05T10:13:32.570Z,8.34
2023-02-05T10:16:37.150Z,8.39
2023-02-05T10:19:47.724Z,8.48
2023-02-05T10:22:46.847Z,8.23
2023-02-05T10:25:45.809Z,8.25
2023-02-05T10:28:54.991Z,8.58
2023-02-05T10:31:44.833Z,8.53
2023-02-05T10:34:47.404Z,9.05
2023-02-05T10:37:42.824Z,8.98
2023-02-05T10:40:34.720Z,8.72
2023-02-05T10:43:26.618Z,8.72
2023-02-05T10:46:15.022Z,8.48
2023-02-05T10:49:09.812Z,8.86
2023-02-05T10:51:56.572Z,8.92
2023-02-05T10:54:43.710Z,8.59
2023-02-05T10:57:37.598Z,8.83
2023-02-05T11:00:24.529Z,8.54
2023-02-05T11:03:19.206Z,8.53
2023-02-05T11:06:10.998Z,8.48
2023-02-05T11:08:57.690Z,8.69
2023-02-05T11:11:44.412Z,8.36
2023-02-05T11:14:35.188Z,8.60
2023-02-05T11:17:24.435Z,8.55
2023-02-05T11:20:29.803Z,8.58
2023-02-05T11:23:20.650Z,8.58
2023-02-05T11:26:17.642Z,8.41
2023-02-05T11:29:21.078Z,8.48
2023-02-05T11:32:19.979Z,8.80
2023-02-05T11:35:17.232Z,8.94
2023-02-05T11:38:10.154Z,8.69
2023-02-05T11:41:00.326Z,8.76
2023-02-05T11:43:50.109Z,8.68
2023-02-05T11:46:45.555Z,9.02
2023-02-05T11:49:35.847Z,9.19
2023-02-05T11:52:26.203Z,9.29
2023-02-05T11:55:26.522Z,9.69
2023-02-05T11:58:36.261Z,9.33
2023-02-05T12:01:25.989Z,9.02
2023-02-05T12:04:20.067Z,8.97
2023-02-05T12:07:16.100Z,8.84
2023-02-05T12:10:02.902Z,8.94
2023-02-05T12:13:02.567Z,9.16
2023-02-05T12:16:01.510Z,9.01
2023-02-05T12:18:57.760Z,9.08
2023-02-05T12:21:54.669Z,9.13
2023-02-05T12:25:00.506Z,8.79
2023-02-05T12:28:05.863Z,9.04
2023-02-05T12:31:05.917Z,8.94
2023-02-05T12:34:10.059Z,8.75
2023-02-05T12:37:13.167Z,8.75
2023-02-05T12:40:08.677Z,8.72
2023-02-05T12:43:01.968Z,8.88
2023-02-05T12:45:58.714Z,9.04
2023-02-05T12:49:01.691Z,9.08
2023-02-05T12:52:01.941Z,9.17
2023-02-05T12:54:59.704Z,9.18
2023-02-05T12:57:50.918Z,9.62
2023-02-05T13:00:42.519Z,9.24
2023-02-05T13:03:38.271Z,9.23
2023-02-05T13:06:31.342Z,9.67
2023-02-05T13:09:23.866Z,8.91
2023-02-05T13:12:14.800Z,9.03
2023-02-05T13:15:08.327Z,9.04
2023-02-05T13:18:00.488Z,9.17
2023-02-05T13:21:08.370Z,9.59
2023-02-05T13:24:23.179Z,9.59
2023-02-05T13:27:38.764Z,9.28
2023-02-05T13:30:29.463Z,9.43
2023-02-05T13:33:16.077Z,9.27
2023-02-05T13:36:29.174Z,8.96
2023-02-05T13:39:34.670Z,8.86
2023-02-05T13:42:45.644Z,8.67
2023-02-05T13:45:53.786Z,9.26
2023-02-05T13:49:15.919Z,9.20
2023-02-05T13:52:29.600Z,8.99
2023-02-05T13:55:43.530Z,9.04
2023-02-05T13:58:33.300Z,9.13
2023-02-05T14:01:25.032Z,9.15
2023-02-05T14:04:21.866Z,9.18
2023-02-05T14:07:26.942Z,9.33
2023-02-05T14:10:28.820Z,9.24
2023-02-05T14:13:23.928Z,8.94
2023-02-05T14:16:36.374Z,9.36
2023-02-05T14:19:26.525Z,9.22
2023-02-05T14:22:33.052Z,9.00
2023-02-05T14:26:02.247Z,9.17
2023-02-05T14:28:53.811Z,9.04
2023-02-05T14:31:49.483Z,9.05
2023-02-05T14:34:58.709Z,9.44
2023-02-05T14:37:48.318Z,9.25
2023-02-05T14:40:36.312Z,9.15
2023-02-05T14:43:28.276Z,8.83
2023-02-05T14:46:30.360Z,9.08
2023-02-05T14:49:24.647Z,9.22
2023-02-05T14:52:27.359Z,8.83
2023-02-05T14:55:21.100Z,9.14
2023-02-05T14:58:11.678Z,9.11
2023-02-05T15:01:13.040Z,8.71
2023-02-05T15:04:03.832Z,8.97
2023-02-05T15:06:51.807Z,8.69
2023-02-05T15:09:43.001Z,8.66
2023-02-05T15:12:42.521Z,8.88
2023-02-05T15:15:34.376Z,8.83
2023-02-05T15:18:25.258Z,8.72
2023-02-05T15:21:17.770Z,9.08
2023-02-05T15:24:14.853Z,8.72
2023-02-05T15:27:04.925Z,8.79
2023-02-05T15:29:57.278Z,9.04
2023-02-05T15:32:49.558Z,8.88
2023-02-05T15:35:37.657Z,9.11
2023-02-05T15:38:33.705Z,8.68
2023-02-05T15:41:22.769Z,8.75
2023-02-05T15:44:21.267Z,8.53
2023-02-05T15:47:15.360Z,8.80
2023-02-05T15:50:03.572Z,8.71
2023-02-05T15:52:50.236Z,8.84
2023-02-05T15:55:39.382Z,8.77
2023-02-05T15:58:27.693Z,9.09
2023-02-05T16:01:24.430Z,8.45
2023-02-05T16:04:18.830Z,8.72
2023-02-05T16:07:18.790Z,8.27
2023-02-05T16:10:17.556Z,8.39
2023-02-05T16:13:07.562Z,8.19
2023-02-05T16:16:01.139Z,8.43
2023-02-05T16:18:52.411Z,7.96
2023-02-05T16:21:45.069Z,7.80
2023-02-05T16:24:34.705Z,7.80
2023-02-05T16:27:27.142Z,7.62
2023-02-05T16:30:20.763Z,7.64
2023-02-05T16:33:13.589Z,7.65
2023-02-05T16:36:02.913Z,7.70
2023-02-05T16:38:54.657Z,7.62
2023-02-05T16:41:44.360Z,7.48
2023-02-05T16:44:33.970Z,7.46
2023-02-05T16:47:21.817Z,7.56
2023-02-05T16:50:38.169Z,7.50
2023-02-05T16:53:26.838Z,7.59
2023-02-05T16:56:20.471Z,7.74
2023-02-05T16:59:07.332Z,7.49
2023-02-05T17:01:54.615Z,7.66
2023-02-05T17:04:42.851Z,7.82
2023-02-05T17:07:30.967Z,7.70
2023-02-05T17:10:21.754Z,7.52
2023-02-05T17:13:28.373Z,7.47
2023-02-05T17:16:29.844Z,7.59
2023-02-05T17:19:24.994Z,7.45
2023-02-05T17:22:20.991Z,7.66
2023-02-05T17:25:08.290Z,7.46
2023-02-05T17:27:55.240Z,7.53
2023-02-05T17:30:42.896Z,7.31
2023-02-05T17:33:29.873Z,7.24
2023-02-05T17:36:18.006Z,7.14
2023-02-05T17:39:06.090Z,7.17
2023-02-05T17:42:07.465Z,7.29
2023-02-05T17:44:54.520Z,7.22
2023-02-05T17:47:41.690Z,7.31
2023-02-05T17:50:28.517Z,7.12
2023-02-05T17:53:14.934Z,7.12
2023-02-05T17:56:03.026Z,7.15
2023-02-05T17:58:51.201Z,7.01
2023-02-05T18:01:37.867Z,7.05
2023-02-05T18:04:25.117Z,6.97
2023-02-05T18:07:21.089Z,6.96
2023-02-05T18:10:11.443Z,7.12
2023-02-05T18:12:59.528Z,6.86
2023-02-05T18:15:46.292Z,7.00
2023-02-05T18:18:34.201Z,7.16
2023-02-05T18:21:21.500Z,7.08
2023-02-05T18:24:08.006Z,7.00
2023-02-05T18:26:54.649Z,6.94
2023-02-05T18:29:43.893Z,6.93
2023-02-05T18:32:31.034Z,7.34
2023-02-05T18:35:17.995Z,7.09
2023-02-05T18:38:04.871Z,7.37
2023-02-05T18:40:51.704Z,7.25
2023-02-05T18:43:39.082Z,7.15
2023-02-05T18:46:29.093Z,7.27
2023-02-05T18:49:15.852Z,7.46
2023-02-05T18:52:02.540Z,7.27
2023-02-05T18:54:49.464Z,7.12
2023-02-05T18:57:36.369Z,7.33
2023-02-05T19:00:23.495Z,7.50
2023-02-05T19:03:11.398Z,7.55
2023-02-05T19:05:58.170Z,7.23
2023-02-05T19:08:45.365Z,7.33
2023-02-05T19:11:33.968Z,6.94
2023-02-05T19:14:22.576Z,7.02
2023-02-05T19:17:09.470Z,6.92
2023-02-05T19:19:58.600Z,7.22
2023-02-05T19:22:45.969Z,7.23
2023-02-05T19:25:32.505Z,7.04
2023-02-05T19:28:19.408Z,6.96
2023-02-05T19:31:08.314Z,6.78
2023-02-05T19:33:56.211Z,6.68
2023-02-05T19:36:43.991Z,6.47
2023-02-05T19:39:30.922Z,6.68
2023-02-05T19:42:17.446Z,6.82
2023-02-05T19:45:04.453Z,6.95
2023-02-05T19:47:51.494Z,6.61
2023-02-05T19:50:38.083Z,6.58
2023-02-05T19:53:25.990Z,6.53
2023-02-05T19:56:14.751Z,6.54
2023-02-05T19:59:01.616Z,6.59
2023-02-05T20:01:49.730Z,6.49
2023-02-05T20:04:36.347Z,6.44
2023-02-05T20:07:23.208Z,6.92
2023-02-05T20:10:11.370Z,6.81
2023-02-05T20:13:00.436Z,6.52
2023-02-05T20:15:47.088Z,6.44
2023-02-05T20:18:34.117Z,6.48
2023-02-05T20:21:20.619Z,6.48
2023-02-05T20:24:08.317Z,6.37
2023-02-05T20:26:57.349Z,6.43
2023-02-05T20:30:02.020Z,6.41
2023-02-05T20:32:48.698Z,6.34
2023-02-05T20:35:36.126Z,6.39
2023-02-05T20:38:22.522Z,6.40
2023-02-05T20:41:13.150Z,6.50
2023-02-05T20:44:00.940Z,6.21
2023-02-05T20:46:47.966Z,6.42
2023-02-05T20:49:35.845Z,6.38
2023-02-05T20:52:22.519Z,6.11
2023-02-05T20:55:09.539Z,6.13
2023-02-05T20:57:56.293Z,6.12
2023-02-05T21:00:44.604Z,6.26
2023-02-05T21:03:31.308Z,6.11
2023-02-05T21:06:18.934Z,6.04
2023-02-05T21:09:07.238Z,6.21
2023-02-05T21:11:55.411Z,6.36
2023-02-05T21:14:42.065Z,6.67
2023-02-05T21:17:29.963Z,6.66
2023-02-05T21:20:17.363Z,6.61
2023-02-05T21:23:03.900Z,6.50
2023-02-05T21:25:51.563Z,6.64
2023-02-05T21:28:37.899Z,6.72
2023-02-05T21:31:25.541Z,6.61
2023-02-05T21:34:15.550Z,6.38
2023-02-05T21:37:01.922Z,6.41
2023-02-05T21:39:50.874Z,6.47
2023-02-05T21:42:39.384Z,6.22
2023-02-05T21:45:26.343Z,6.39
2023-02-05T21:48:14.225Z,6.36
2023-02-05T21:51:06.649Z,6.49
2023-02-05T21:53:58.773Z,6.67
2023-02-05T21:56:45.686Z,6.45
2023-02-05T21:59:32.438Z,6.50
2023-02-05T22:02:19.160Z,6.57
2023-02-05T22:05:07.078Z,6.29
2023-02-05T22:07:55.456Z,6.27
2023-02-05T22:10:42.116Z,6.28
2023-02-05T22:13:32.108Z,6.04
2023-02-05T22:16:20.790Z,6.07
2023-02-05T22:19:07.952Z,5.93
2023-02-05T22:21:55.242Z,6.09
2023-02-05T22:24:43.652Z,5.91
2023-02-05T22:27:30.868Z,6.13
2023-02-05T22:30:17.751Z,6.09
2023-02-05T22:33:04.406Z,6.15
2023-02-05T22:35:52.850Z,6.08
2023-02-05T22:38:42.446Z,5.83
2023-02-05T22:41:33.378Z,5.84
2023-02-05T22:44:20.454Z,5.43
2023-02-05T22:47:06.893Z,5.52
2023-02-05T22:49:53.579Z,5.66
2023-02-05T22:52:40.237Z,5.93
2023-02-05T22:55:26.975Z,6.00
2023-02-05T22:58:15.020Z,5.64
2023-02-05T23:04:38.683Z,5.71
2023-02-05T23:07:25.238Z,5.76
2023-02-05T23:10:11.885Z,5.75
2023-02-05T23:12:58.901Z,5.61
2023-02-05T23:15:46.768Z,5.66
2023-02-05T23:18:33.195Z,6.15
2023-02-05T23:21:22.884Z,6.00
2023-02-05T23:24:10.047Z,5.93
2023-02-05T23:26:56.490Z,5.97
2023-02-05T23:29:43.059Z,5.80
2023-02-05T23:32:30.992Z,5.88
2023-02-05T23:35:17.615Z,5.97
2023-02-05T23:38:04.056Z,5.92
2023-02-05T23:40:50.868Z,5.79
2023-02-05T23:43:38.246Z,5.91
2023-02-05T23:46:24.844Z,5.95
2023-02-05T23:49:13.560Z,6.04
2023-02-05T23:52:00.070Z,6.09
2023-02-05T23:54:46.573Z,6.06
2023-02-05T23:57:33.558Z,6.25
